DRRA weather

Tessaoua Airport
Tessaoua, Maradi Region, Niger

Public forecast

Using degrees Celsius for public forecast. Weather courtesy of forecast.io.

METAR (pilot weather report)

Report is more than 2 hours old.

Closest report is Maradi Airport, 54.3 nm (100.6 km) WSW. Retrieved 2019/02/17 18:00 UTC (4 hours ago):

DRRM 171800Z 10004KT 0900 DU NSC 27/M01 Q1014

TAF (pilot weather forecast)

Closest forecast is Zinder Airport, 56.2 nm (104.1 km) E. Retrieved 2019/02/17 18:21 UTC (3 hours ago):

TAF DRZR 171700Z 1718/1818 08010KT 3500 DU NSC BECMG 1721/1723 6000 NSW TEMPO 1806/1810 3500 DU